createdAt,value
2018-07-14T00:02:23.087Z,98474.08
2018-07-14T00:04:51.562Z,98472.03
2018-07-14T00:07:20.107Z,98473.28
2018-07-14T00:09:48.673Z,98470.34
2018-07-14T00:12:17.360Z,98471.53
2018-07-14T00:14:45.776Z,98477.98
2018-07-14T00:17:14.458Z,98476.17
2018-07-14T00:19:42.898Z,98480.05
2018-07-14T00:22:11.421Z,98480.32
2018-07-14T00:24:39.876Z,98487.04
2018-07-14T00:27:08.300Z,98486.16
2018-07-14T00:29:36.769Z,98493.08
2018-07-14T00:32:05.872Z,98493.48
2018-07-14T00:34:34.375Z,98488.61
2018-07-14T00:37:02.835Z,98487.05
2018-07-14T00:39:31.331Z,98486.69
2018-07-14T00:41:59.903Z,98496.98
2018-07-14T00:44:28.361Z,98493.05
2018-07-14T00:46:56.812Z,98492.09
2018-07-14T00:49:25.260Z,98490.13
2018-07-14T00:51:53.847Z,98496.90
2018-07-14T00:54:22.323Z,98497.88
2018-07-14T00:56:50.786Z,98492.09
2018-07-14T00:59:19.195Z,98494.19
2018-07-14T01:01:47.641Z,98491.19
2018-07-14T01:04:16.102Z,98492.00
2018-07-14T01:06:44.548Z,98492.59
2018-07-14T01:09:13.019Z,98496.62
2018-07-14T01:11:41.462Z,98498.25
2018-07-14T01:14:10.147Z,98496.48
2018-07-14T01:16:38.859Z,98497.89
2018-07-14T01:19:07.330Z,98495.44
2018-07-14T01:21:35.886Z,98496.00
2018-07-14T01:24:04.346Z,98498.53
2018-07-14T01:26:32.811Z,98494.25
2018-07-14T01:29:01.275Z,98489.30
2018-07-14T01:31:29.721Z,98491.93
2018-07-14T01:33:58.227Z,98493.83
2018-07-14T01:36:26.686Z,98497.48
2018-07-14T01:38:55.111Z,98490.00
2018-07-14T01:41:23.578Z,98488.10
2018-07-14T01:43:52.044Z,98492.37
2018-07-14T01:46:20.507Z,98493.78
2018-07-14T01:48:48.984Z,98492.30
2018-07-14T01:51:17.464Z,98491.52
2018-07-14T01:53:45.942Z,98484.76
2018-07-14T01:56:14.371Z,98480.98
2018-07-14T01:58:42.900Z,98476.20
2018-07-14T02:01:11.380Z,98479.67
2018-07-14T02:07:11.116Z,98483.35
2018-07-14T02:09:39.560Z,98480.16
2018-07-14T02:12:08.399Z,98478.59
2018-07-14T02:14:36.869Z,98482.09
2018-07-14T02:17:05.286Z,98484.17
2018-07-14T02:19:33.774Z,98489.53
2018-07-14T02:22:02.191Z,98485.82
2018-07-14T02:24:30.671Z,98482.69
2018-07-14T02:26:59.264Z,98472.16
2018-07-14T02:29:27.701Z,98484.05
2018-07-14T02:31:56.209Z,98485.59
2018-07-14T02:34:24.702Z,98488.09
2018-07-14T02:36:53.225Z,98490.70
2018-07-14T02:39:21.698Z,98488.22
2018-07-14T02:41:50.206Z,98488.05
2018-07-14T02:44:18.671Z,98487.58
2018-07-14T02:46:47.110Z,98483.02
2018-07-14T02:49:15.644Z,98483.44
2018-07-14T02:51:44.146Z,98487.79
2018-07-14T02:54:12.755Z,98487.79
2018-07-14T02:56:41.229Z,98486.56
2018-07-14T02:59:09.672Z,98485.05
2018-07-14T03:01:38.324Z,98487.98
2018-07-14T03:04:06.791Z,98486.37
2018-07-14T03:06:35.267Z,98486.88
2018-07-14T03:09:04.780Z,98494.38
2018-07-14T03:11:33.236Z,98492.83
2018-07-14T03:14:01.692Z,98491.44
2018-07-14T03:16:30.152Z,98494.52
2018-07-14T03:18:58.699Z,98483.97
2018-07-14T03:21:27.165Z,98501.05
2018-07-14T03:23:55.576Z,98491.00
2018-07-14T03:26:24.005Z,98501.36
2018-07-14T03:28:52.480Z,98498.75
2018-07-14T03:31:20.957Z,98498.27
2018-07-14T03:33:49.500Z,98502.34
2018-07-14T03:36:17.979Z,98505.58
2018-07-14T03:38:46.415Z,98516.03
2018-07-14T03:41:15.198Z,98522.63
2018-07-14T03:43:43.632Z,98521.60
2018-07-14T03:46:12.041Z,98525.56
2018-07-14T03:48:40.486Z,98518.20
2018-07-14T03:51:08.923Z,98524.88
2018-07-14T03:53:37.403Z,98516.80
2018-07-14T03:56:06.399Z,98518.56
2018-07-14T03:58:34.832Z,98527.13
2018-07-14T04:01:03.308Z,98519.83
2018-07-14T04:03:31.731Z,98523.00
2018-07-14T04:06:00.199Z,98528.52
2018-07-14T04:08:28.627Z,98526.30
2018-07-14T04:10:57.084Z,98528.42
2018-07-14T04:13:25.551Z,98535.63
2018-07-14T04:15:53.987Z,98532.56
2018-07-14T04:18:22.443Z,98531.97
2018-07-14T04:20:50.927Z,98531.09
2018-07-14T04:23:19.358Z,98530.66
2018-07-14T04:25:47.830Z,98534.16
2018-07-14T04:28:16.298Z,98533.30
2018-07-14T04:30:44.762Z,98526.39
2018-07-14T04:33:13.162Z,98530.37
2018-07-14T04:35:41.815Z,98530.87
2018-07-14T04:38:40.933Z,98531.02
2018-07-14T04:41:09.387Z,98525.84
2018-07-14T04:43:37.880Z,98527.53
2018-07-14T04:46:06.702Z,98515.58
2018-07-14T04:48:35.172Z,98531.66
2018-07-14T04:51:03.651Z,98529.13
2018-07-14T04:53:32.077Z,98533.45
2018-07-14T04:56:00.547Z,98533.93
2018-07-14T04:58:28.988Z,98540.28
2018-07-14T05:00:57.520Z,98527.84
2018-07-14T05:03:25.961Z,98533.06
2018-07-14T05:05:54.666Z,98529.42
2018-07-14T05:08:23.376Z,98527.65
2018-07-14T05:10:52.316Z,98531.48
2018-07-14T05:13:20.834Z,98531.75
2018-07-14T05:15:49.306Z,98532.70
2018-07-14T05:18:17.775Z,98527.55
2018-07-14T05:20:46.220Z,98532.03
2018-07-14T05:23:14.690Z,98538.33
2018-07-14T05:25:43.151Z,98537.45
2018-07-14T05:28:11.779Z,98538.58
2018-07-14T05:30:40.235Z,98539.53
2018-07-14T05:33:08.672Z,98537.95
2018-07-14T05:35:37.141Z,98537.49
2018-07-14T05:38:05.589Z,98541.78
2018-07-14T05:40:34.050Z,98545.20
2018-07-14T05:43:02.735Z,98548.15
2018-07-14T05:45:31.225Z,98539.77
2018-07-14T05:47:59.663Z,98544.70
2018-07-14T05:50:28.092Z,98541.11
2018-07-14T05:52:56.521Z,98541.47
2018-07-14T05:55:25.639Z,98537.48
2018-07-14T05:57:54.071Z,98537.30
2018-07-14T06:00:22.506Z,98534.14
2018-07-14T06:02:50.914Z,98536.72
2018-07-14T06:05:19.375Z,98540.68
2018-07-14T06:07:47.799Z,98542.78
2018-07-14T06:10:16.252Z,98542.55
2018-07-14T06:12:44.714Z,98532.68
2018-07-14T06:15:13.303Z,98537.20
2018-07-14T06:17:41.758Z,98533.21
2018-07-14T06:20:10.779Z,98525.24
2018-07-14T06:22:39.320Z,98526.25
2018-07-14T06:25:08.402Z,98526.58
2018-07-14T06:27:37.167Z,98528.17
2018-07-14T06:30:07.394Z,98524.55
2018-07-14T06:32:35.827Z,98530.27
2018-07-14T06:35:04.445Z,98530.34
2018-07-14T06:37:32.918Z,98528.27
2018-07-14T06:40:01.496Z,98534.73
2018-07-14T06:42:29.923Z,98535.27
2018-07-14T06:44:58.606Z,98536.19
2018-07-14T06:47:27.011Z,98529.96
2018-07-14T06:49:55.480Z,98535.16
2018-07-14T06:52:23.900Z,98528.88
2018-07-14T06:54:53.351Z,98523.86
2018-07-14T06:57:21.834Z,98525.77
2018-07-14T06:59:50.272Z,98530.27
2018-07-14T07:02:18.759Z,98531.47
2018-07-14T07:04:47.167Z,98533.11
2018-07-14T07:07:15.868Z,98543.48
2018-07-14T07:09:44.309Z,98537.48
2018-07-14T07:12:12.901Z,98533.81
2018-07-14T07:14:41.637Z,98535.45
2018-07-14T07:17:10.292Z,98531.80
2018-07-14T07:19:39.023Z,98529.80
2018-07-14T07:22:07.427Z,98524.41
2018-07-14T07:24:35.816Z,98524.09
2018-07-14T07:27:04.272Z,98529.93
2018-07-14T07:29:32.737Z,98531.06
2018-07-14T07:32:01.163Z,98526.02
2018-07-14T07:34:29.688Z,98530.63
2018-07-14T07:36:58.271Z,98533.03
2018-07-14T07:39:26.719Z,98534.52
2018-07-14T07:41:55.225Z,98535.02
2018-07-14T07:44:23.656Z,98532.16
2018-07-14T07:46:52.113Z,98538.27
2018-07-14T07:49:20.574Z,98540.50
2018-07-14T07:51:48.989Z,98537.81
2018-07-14T07:54:17.807Z,98539.86
2018-07-14T07:56:46.299Z,98529.23
2018-07-14T07:59:14.699Z,98534.20
2018-07-14T08:01:43.180Z,98529.88
2018-07-14T08:04:11.663Z,98531.16
2018-07-14T08:06:40.089Z,98536.17
2018-07-14T08:09:09.058Z,98533.54
2018-07-14T08:11:37.486Z,98537.64
2018-07-14T08:14:06.182Z,98525.38
2018-07-14T08:16:34.627Z,98521.50
2018-07-14T08:19:03.183Z,98528.77
2018-07-14T08:21:31.631Z,98518.66
2018-07-14T08:24:00.041Z,98519.48
2018-07-14T08:26:28.586Z,98522.37
2018-07-14T08:28:56.980Z,98516.77
2018-07-14T08:31:25.427Z,98507.81
2018-07-14T08:33:53.880Z,98505.61
2018-07-14T08:36:22.328Z,98512.50
2018-07-14T08:38:50.776Z,98510.19
2018-07-14T08:41:19.211Z,98505.55
2018-07-14T08:43:47.685Z,98507.19
2018-07-14T08:46:16.107Z,98514.52
2018-07-14T08:48:44.736Z,98500.09
2018-07-14T08:51:13.531Z,98504.78
2018-07-14T08:53:41.890Z,98498.69
2018-07-14T08:56:10.355Z,98499.16
2018-07-14T08:58:38.889Z,98496.33
2018-07-14T09:01:08.219Z,98499.91
2018-07-14T09:03:36.668Z,98500.88
2018-07-14T09:06:05.496Z,98498.79
2018-07-14T09:08:33.893Z,98502.17
2018-07-14T09:11:02.325Z,98493.97
2018-07-14T09:13:30.772Z,98493.38
2018-07-14T09:15:59.207Z,98497.38
2018-07-14T09:19:30.329Z,98500.11
2018-07-14T09:21:58.973Z,98494.08
2018-07-14T09:24:27.397Z,98490.88
2018-07-14T09:26:55.859Z,98490.19
2018-07-14T09:29:24.324Z,98486.66
2018-07-14T09:31:52.765Z,98484.02
2018-07-14T09:34:21.195Z,98479.33
2018-07-14T09:36:49.728Z,98476.73
2018-07-14T09:39:18.192Z,98475.06
2018-07-14T09:41:46.617Z,98469.25
2018-07-14T09:44:15.460Z,98472.17
2018-07-14T09:46:43.893Z,98467.33
2018-07-14T09:49:12.561Z,98465.88
2018-07-14T09:51:41.299Z,98464.74
2018-07-14T09:54:09.714Z,98452.64
2018-07-14T09:56:38.175Z,98446.97
2018-07-14T09:59:06.639Z,98447.16
2018-07-14T10:01:35.086Z,98444.68
2018-07-14T10:04:03.547Z,98444.77
2018-07-14T10:06:31.972Z,98435.73
2018-07-14T10:09:14.880Z,98434.19
2018-07-14T10:11:43.326Z,98431.47
2018-07-14T10:14:12.019Z,98430.95
2018-07-14T10:16:40.486Z,98423.87
2018-07-14T10:19:09.081Z,98422.20
2018-07-14T10:21:37.619Z,98423.42
2018-07-14T10:24:06.400Z,98415.13
2018-07-14T10:26:34.882Z,98421.36
2018-07-14T10:29:03.414Z,98412.47
2018-07-14T10:31:32.153Z,98413.70
2018-07-14T10:34:01.052Z,98405.18
2018-07-14T10:36:29.635Z,98403.20
2018-07-14T10:38:58.115Z,98388.64
2018-07-14T10:41:26.555Z,98387.44
2018-07-14T10:43:55.010Z,98383.11
2018-07-14T10:46:23.451Z,98382.59
2018-07-14T10:48:51.982Z,98377.98
2018-07-14T10:51:20.434Z,98378.42
2018-07-14T10:53:48.871Z,98382.17
2018-07-14T10:56:17.294Z,98371.83
2018-07-14T10:58:45.699Z,98373.72
2018-07-14T11:01:14.139Z,98372.84
2018-07-14T11:03:42.551Z,98369.38
2018-07-14T11:06:11.016Z,98363.45
2018-07-14T11:08:39.539Z,98368.03
2018-07-14T11:11:07.967Z,98363.40
2018-07-14T11:13:36.393Z,98361.65
2018-07-14T11:16:04.806Z,98371.72
2018-07-14T11:18:33.564Z,98349.77
2018-07-14T11:21:02.301Z,98342.92
2018-07-14T11:23:30.760Z,98349.48
2018-07-14T11:25:59.484Z,98351.67
2018-07-14T11:28:27.928Z,98337.00
2018-07-14T11:30:56.357Z,98331.44
2018-07-14T11:33:24.803Z,98336.57
2018-07-14T11:35:53.259Z,98331.58
2018-07-14T11:38:21.768Z,98342.09
2018-07-14T11:40:50.305Z,98331.60
2018-07-14T11:43:18.939Z,98325.05
2018-07-14T11:45:47.397Z,98317.61
2018-07-14T11:48:15.822Z,98320.88
2018-07-14T11:50:44.271Z,98317.37
2018-07-14T11:53:12.889Z,98315.19
2018-07-14T11:55:41.342Z,98315.85
2018-07-14T11:58:09.771Z,98318.11
2018-07-14T12:00:38.204Z,98312.47
2018-07-14T12:03:07.007Z,98317.95
2018-07-14T12:05:35.467Z,98319.52
2018-07-14T12:08:03.945Z,98310.36
2018-07-14T12:10:32.348Z,98305.22
2018-07-14T12:13:00.908Z,98295.73
2018-07-14T12:15:29.355Z,98312.48
2018-07-14T12:17:57.787Z,98298.11
2018-07-14T12:20:26.269Z,98302.66
2018-07-14T12:22:54.739Z,98303.63
2018-07-14T12:25:23.199Z,98298.16
2018-07-14T12:27:51.628Z,98300.33
2018-07-14T12:30:20.157Z,98300.69
2018-07-14T12:32:48.536Z,98317.72
2018-07-14T12:35:16.946Z,98319.92
2018-07-14T12:37:45.386Z,98343.39
2018-07-14T12:40:14.191Z,98334.36
2018-07-14T12:42:42.669Z,98335.68
2018-07-14T12:45:11.120Z,98329.99
2018-07-14T12:47:39.546Z,98334.66
2018-07-14T12:50:08.647Z,98332.73
2018-07-14T12:52:37.607Z,98336.42
2018-07-14T12:55:06.343Z,98333.47
2018-07-14T12:57:34.811Z,98336.80
2018-07-14T13:00:03.495Z,98330.33
2018-07-14T13:02:31.998Z,98327.22
2018-07-14T13:05:00.458Z,98323.56
2018-07-14T13:07:28.910Z,98325.63
2018-07-14T13:09:57.369Z,98318.14
2018-07-14T13:12:25.784Z,98307.97
2018-07-14T13:14:54.477Z,98324.41
2018-07-14T13:17:22.895Z,98326.64
2018-07-14T13:19:51.336Z,98341.24
2018-07-14T13:22:19.843Z,98338.11
2018-07-14T13:24:48.255Z,98347.66
2018-07-14T13:27:16.735Z,98344.63
2018-07-14T13:29:45.881Z,98335.56
2018-07-14T13:32:14.304Z,98331.22
2018-07-14T13:34:42.768Z,98334.29
2018-07-14T13:37:11.200Z,98329.77
2018-07-14T13:39:39.618Z,98328.73
2018-07-14T13:42:08.099Z,98323.66
2018-07-14T13:44:36.619Z,98321.86
2018-07-14T13:47:05.433Z,98328.98
2018-07-14T13:49:33.841Z,98324.20
2018-07-14T13:52:02.307Z,98311.09
2018-07-14T13:54:31.329Z,98306.70
2018-07-14T13:56:59.767Z,98297.75
2018-07-14T13:59:28.210Z,98299.72
2018-07-14T14:01:56.679Z,98290.66
2018-07-14T14:04:25.107Z,98290.94
2018-07-14T14:06:53.728Z,98283.77
2018-07-14T14:09:22.318Z,98284.22
2018-07-14T14:11:50.748Z,98276.64
2018-07-14T14:14:19.263Z,98265.23
2018-07-14T14:16:47.725Z,98263.55
2018-07-14T14:19:16.217Z,98256.28
2018-07-14T14:21:44.704Z,98255.84
2018-07-14T14:24:13.181Z,98255.75
2018-07-14T14:26:41.661Z,98262.36
2018-07-14T14:29:10.077Z,98260.38
2018-07-14T14:31:38.514Z,98264.30
2018-07-14T14:34:07.011Z,98255.48
2018-07-14T14:36:35.453Z,98258.98
2018-07-14T14:39:04.365Z,98258.84
2018-07-14T14:41:32.764Z,98259.80
2018-07-14T14:44:01.219Z,98261.27
2018-07-14T14:46:29.664Z,98262.59
2018-07-14T14:48:58.380Z,98263.21
2018-07-14T14:51:27.059Z,98265.67
2018-07-14T14:53:55.519Z,98259.74
2018-07-14T14:56:24.068Z,98264.50
2018-07-14T14:58:52.571Z,98260.02
2018-07-14T15:01:21.084Z,98270.86
2018-07-14T15:03:49.596Z,98268.39
2018-07-14T15:06:18.196Z,98280.84
2018-07-14T15:08:46.653Z,98281.91
2018-07-14T15:11:15.057Z,98295.00
2018-07-14T15:13:43.581Z,98305.35
2018-07-14T15:16:12.030Z,98312.44
2018-07-14T15:18:40.508Z,98315.47
2018-07-14T15:21:08.918Z,98305.48
2018-07-14T15:23:37.371Z,98304.27
2018-07-14T15:26:06.166Z,98303.77
2018-07-14T15:28:34.590Z,98309.38
2018-07-14T15:31:03.140Z,98316.95
2018-07-14T15:33:31.792Z,98320.22
2018-07-14T15:36:00.239Z,98328.31
2018-07-14T15:38:28.715Z,98337.98
2018-07-14T15:40:57.487Z,98346.04
2018-07-14T15:43:25.932Z,98338.95
2018-07-14T15:45:54.386Z,98337.66
2018-07-14T15:48:22.831Z,98332.30
2018-07-14T15:50:51.310Z,98332.39
2018-07-14T15:53:19.711Z,98338.91
2018-07-14T15:55:48.196Z,98338.03
2018-07-14T15:58:16.639Z,98341.33
2018-07-14T16:00:45.120Z,98348.67
2018-07-14T16:03:13.557Z,98339.84
2018-07-14T16:05:42.457Z,98327.19
2018-07-14T16:08:11.164Z,98316.11
2018-07-14T16:10:39.627Z,98313.70
2018-07-14T16:13:08.531Z,98313.30
2018-07-14T16:15:36.972Z,98314.21
2018-07-14T16:18:05.864Z,98300.19
2018-07-14T16:20:34.273Z,98300.65
2018-07-14T16:23:02.765Z,98290.20
2018-07-14T16:25:31.217Z,98290.56
2018-07-14T16:27:59.633Z,98286.33
2018-07-14T16:30:28.238Z,98288.88
2018-07-14T16:32:56.867Z,98292.01
2018-07-14T16:35:25.340Z,98290.03
2018-07-14T16:37:53.763Z,98291.49
2018-07-14T16:40:22.203Z,98302.44
2018-07-14T16:42:50.652Z,98291.98
2018-07-14T16:45:19.083Z,98289.31
2018-07-14T16:47:47.584Z,98284.78
2018-07-14T16:50:16.057Z,98290.66
2018-07-14T16:52:44.465Z,98285.03
2018-07-14T16:55:12.955Z,98288.83
2018-07-14T16:57:41.498Z,98307.67
2018-07-14T17:00:10.193Z,98442.95
2018-07-14T17:02:38.594Z,98403.89
2018-07-14T17:05:07.038Z,98370.72
2018-07-14T17:07:35.507Z,98336.64
2018-07-14T17:10:04.011Z,98316.42
2018-07-14T17:12:32.451Z,98305.69
2018-07-14T17:15:00.903Z,98298.06
2018-07-14T17:17:29.336Z,98295.52
2018-07-14T17:19:57.790Z,98292.63
2018-07-14T17:22:26.264Z,98292.03
2018-07-14T17:24:54.774Z,98290.62
2018-07-14T17:27:23.183Z,98281.52
2018-07-14T17:29:51.796Z,98280.08
2018-07-14T17:32:20.259Z,98277.22
2018-07-14T17:34:48.708Z,98271.53
2018-07-14T17:37:17.351Z,98275.99
2018-07-14T17:39:46.051Z,98273.91
2018-07-14T17:42:14.493Z,98279.17
2018-07-14T17:44:42.939Z,98284.86
2018-07-14T17:47:11.638Z,98284.70
2018-07-14T17:49:40.320Z,98277.70
2018-07-14T17:52:08.987Z,98267.68
2018-07-14T17:54:37.262Z,98272.80
2018-07-14T17:57:06.264Z,98271.43
2018-07-14T17:59:34.707Z,98266.02
2018-07-14T18:02:03.214Z,98258.41
2018-07-14T18:04:31.669Z,98265.45
2018-07-14T18:07:00.125Z,98251.81
2018-07-14T18:09:28.596Z,98250.08
2018-07-14T18:11:57.302Z,98252.53
2018-07-14T18:14:25.743Z,98248.44
2018-07-14T18:16:54.164Z,98249.20
2018-07-14T18:19:22.630Z,98250.92
2018-07-14T18:21:51.111Z,98248.53
2018-07-14T18:24:19.540Z,98255.89
2018-07-14T18:26:48.006Z,98259.06
2018-07-14T18:29:17.149Z,98258.59
2018-07-14T18:31:45.823Z,98258.34
2018-07-14T18:34:14.277Z,98264.34
2018-07-14T18:36:42.723Z,98255.96
2018-07-14T18:39:11.131Z,98250.91
2018-07-14T18:41:39.585Z,98249.33
2018-07-14T18:44:08.015Z,98255.20
2018-07-14T18:46:36.487Z,98247.96
2018-07-14T18:49:05.027Z,98241.79
2018-07-14T18:51:33.532Z,98237.47
2018-07-14T18:54:02.006Z,98239.22
2018-07-14T18:56:30.469Z,98207.44
2018-07-14T18:58:58.890Z,98257.11
2018-07-14T19:01:27.351Z,98260.72
2018-07-14T19:03:55.763Z,98267.60
2018-07-14T19:06:24.219Z,98262.36
2018-07-14T19:08:52.677Z,98241.73
2018-07-14T19:11:21.131Z,98255.13
2018-07-14T19:13:50.141Z,98265.13
2018-07-14T19:16:18.591Z,98269.59
2018-07-14T19:18:47.110Z,98262.60
2018-07-14T19:21:15.724Z,98274.48
2018-07-14T19:23:44.194Z,98277.31
2018-07-14T19:26:13.027Z,98280.02
2018-07-14T19:28:41.343Z,98277.00
2018-07-14T19:31:09.795Z,98284.69
2018-07-14T19:33:38.204Z,98285.41
2018-07-14T19:36:06.668Z,98286.77
2018-07-14T19:38:35.078Z,98285.44
2018-07-14T19:41:03.650Z,98291.45
2018-07-14T19:43:32.137Z,98288.80
2018-07-14T19:46:00.786Z,98289.33
2018-07-14T19:48:29.275Z,98301.03
2018-07-14T19:50:58.217Z,98294.17
2018-07-14T19:53:26.931Z,98294.16
2018-07-14T19:55:55.685Z,98304.18
2018-07-14T19:58:24.081Z,98305.38
2018-07-14T20:00:53.835Z,98309.87
2018-07-14T20:03:22.272Z,98311.88
2018-07-14T20:05:51.038Z,98310.20
2018-07-14T20:08:19.754Z,98312.50
2018-07-14T20:10:48.240Z,98314.66
2018-07-14T20:13:16.740Z,98317.31
2018-07-14T20:15:45.183Z,98323.91
2018-07-14T20:18:13.610Z,98323.38
2018-07-14T20:20:42.076Z,98318.97
2018-07-14T20:23:11.028Z,98317.42
2018-07-14T20:25:39.629Z,98310.36
2018-07-14T20:28:08.027Z,98317.58
2018-07-14T20:30:36.488Z,98321.55
2018-07-14T20:33:04.937Z,98321.92
2018-07-14T20:35:33.348Z,98323.64
2018-07-14T20:38:01.999Z,98329.33
2018-07-14T20:40:30.449Z,98335.64
2018-07-14T20:42:58.905Z,98327.96
2018-07-14T20:45:30.220Z,98328.59
2018-07-14T20:47:58.611Z,98335.51
2018-07-14T20:50:27.525Z,98332.98
2018-07-14T20:52:55.964Z,98325.16
2018-07-14T20:55:24.411Z,98336.77
2018-07-14T20:57:52.990Z,98330.45
2018-07-14T21:00:21.780Z,98329.30
2018-07-14T21:02:50.275Z,98332.14
2018-07-14T21:05:18.791Z,98335.73
2018-07-14T21:07:47.781Z,98335.48
2018-07-14T21:10:16.585Z,98328.77
2018-07-14T21:12:45.361Z,98328.22
2018-07-14T21:15:14.124Z,98323.20
2018-07-14T21:17:42.721Z,98321.97
2018-07-14T21:20:11.254Z,98325.27
2018-07-14T21:22:39.712Z,98324.77
2018-07-14T21:25:08.519Z,98323.03
2018-07-14T21:27:37.195Z,98326.84
2018-07-14T21:30:05.740Z,98333.51
2018-07-14T21:32:34.232Z,98330.13
2018-07-14T21:35:02.680Z,98336.78
2018-07-14T21:37:31.120Z,98332.37
2018-07-14T21:39:59.762Z,98336.98
2018-07-14T21:42:28.445Z,98348.55
2018-07-14T21:44:56.876Z,98345.89
2018-07-14T21:47:25.736Z,98351.47
2018-07-14T21:50:56.929Z,98350.97
2018-07-14T21:53:25.361Z,98351.92
2018-07-14T21:55:53.797Z,98351.09
2018-07-14T21:58:22.227Z,98350.91
2018-07-14T22:00:55.873Z,98354.89
2018-07-14T22:03:24.291Z,98349.89
2018-07-14T22:05:53.123Z,98351.59
2018-07-14T22:08:21.584Z,98357.25
2018-07-14T22:10:50.148Z,98360.98
2018-07-14T22:13:18.589Z,98366.97
2018-07-14T22:15:47.044Z,98362.50
2018-07-14T22:18:15.543Z,98366.11
2018-07-14T22:20:44.020Z,98367.00
2018-07-14T22:23:12.522Z,98361.55
2018-07-14T22:25:40.972Z,98362.77
2018-07-14T22:28:09.475Z,98366.41
2018-07-14T22:30:37.960Z,98361.55
2018-07-14T22:33:06.405Z,98366.53
2018-07-14T22:35:34.860Z,98368.91
2018-07-14T22:38:03.357Z,98365.03
2018-07-14T22:40:31.832Z,98366.66
2018-07-14T22:43:00.561Z,98366.83
2018-07-14T22:45:29.042Z,98362.84
2018-07-14T22:47:58.055Z,98363.36
2018-07-14T22:50:26.564Z,98365.86
2018-07-14T22:52:55.024Z,98361.22
2018-07-14T22:55:23.499Z,98364.95
2018-07-14T22:57:51.972Z,98358.14
2018-07-14T23:00:20.412Z,98361.61
2018-07-14T23:02:48.883Z,98360.83
2018-07-14T23:05:17.419Z,98362.94
2018-07-14T23:07:45.870Z,98365.41
2018-07-14T23:10:14.317Z,98363.81
2018-07-14T23:12:42.821Z,98367.67
2018-07-14T23:15:11.238Z,98367.37
2018-07-14T23:17:39.678Z,98361.59
2018-07-14T23:20:08.235Z,98363.49
2018-07-14T23:24:06.108Z,98355.56
2018-07-14T23:26:34.609Z,98356.94
2018-07-14T23:29:03.085Z,98352.11
2018-07-14T23:31:31.575Z,98345.80
2018-07-14T23:34:00.011Z,98344.03
2018-07-14T23:36:28.571Z,98343.94
2018-07-14T23:38:57.022Z,98341.30
2018-07-14T23:41:25.727Z,98345.56
2018-07-14T23:43:54.721Z,98344.92
2018-07-14T23:46:23.768Z,98346.02
2018-07-14T23:48:52.494Z,98342.59
2018-07-14T23:51:20.968Z,98341.07
2018-07-14T23:53:49.452Z,98339.25
2018-07-14T23:56:17.977Z,98342.08
2018-07-14T23:58:46.903Z,98341.55
